• Join FlightAware (Why Join?)
  • Login
  • US Flag 
09:44PM EDT


 

Airport Tracker/Info


-or-


 

Live Flight TrackerFlight Track Log ✈ EZY1840 ✈ 19-Apr-2013 ✈ LGTS / SKG - EGCC / MAN

Flight Track Log - Related Links

Times and Time Zones

All times are in EDT time to prevent confusion due to time zone crossing. See the EZY1840 flight status page for this flight to view local times or setup timezone preferences in your user account.

Time Position Orientation Groundspeed Altitude Reporting Facility
EDT Latitude Longitude Course Direction KTS MPH feet Rate Location/Type
05:07AM 40.5350 22.9660 346° North 152 175 500  Level FlightAware
05:07AM 40.5510 22.9570 337° Northwest 163 188 1,400 1,920 Climbing FlightAware
05:08AM 40.5710 22.9330 318° Northwest 205 236 2,300 1,560 Climbing FlightAware
05:08AM 40.5820 22.9200 318° Northwest 229 264 2,600 1,620 Climbing FlightAware
05:08AM 40.5990 22.8890 306° West 267 307 3,400 2,460 Climbing FlightAware
05:09AM 40.5970 22.8380 267° West 284 327 4,900 2,160 Climbing FlightAware
05:09AM 40.5910 22.7860 261° West 296 341 5,600 1,620 Climbing FlightAware
05:10AM 40.5860 22.7410 262° West 295 339 6,400 2,820 Climbing FlightAware
05:10AM 40.5810 22.6880 263° West 297 342 8,200 3,600 Climbing FlightAware
05:11AM 40.5790 22.6610 264° West 297 342 9,100 3,000 Climbing FlightAware
05:11AM 40.5720 22.5900 263° West 310 357 11,000 2,820 Climbing FlightAware
05:12AM 40.5660 22.5130 264° West 323 372 12,900 2,100 Climbing FlightAware
05:13AM 40.5570 22.4160 263° West 366 421 14,000 2,040 Climbing FlightAware
05:13AM 40.5490 22.3290 263° West 371 427 15,800 2,520 Climbing FlightAware
05:14AM 40.5400 22.2280 263° West 381 438 17,600 2,280 Climbing FlightAware
05:15AM 40.5320 22.1320 264° West 392 451 19,100 1,920 Climbing FlightAware
05:15AM 40.5230 22.0350 263° West 409 471 20,200 1,800 Climbing FlightAware
05:16AM 40.5410 21.9270 282° West 407 468 21,700 1,860 Climbing FlightAware
05:17AM 40.5660 21.8320 289° West 415 478 22,900 1,860 Climbing FlightAware
05:18AM 40.5950 21.7230 289° West 420 483 24,400 1,860 Climbing FlightAware
05:18AM 40.6200 21.6260 289° West 424 488 25,600 1,620 Climbing FlightAware
05:19AM 40.6460 21.5260 289° West 433 498 26,600 1,440 Climbing FlightAware
05:20AM 40.6760 21.4130 289° West 440 506 27,700 1,320 Climbing FlightAware
05:20AM 40.7030 21.3110 289° West 451 519 28,500 960 Climbing FlightAware
05:21AM 40.7330 21.1920 288° West 459 528 29,100 1,200 Climbing FlightAware
05:22AM 40.7600 21.0870 289° West 457 526 30,200 1,260 Climbing FlightAware
05:22AM 40.7880 20.9800 289° West 460 529 30,800 960 Climbing FlightAware
05:23AM 40.8350 20.8760 301° West 442 509 31,600 1,080 Climbing FlightAware
05:24AM 40.8790 20.7910 304° West 441 507 32,400 1,320 Climbing FlightAware
05:25AM 40.9340 20.6820 304° West 439 505 33,500 1,320 Climbing FlightAware
05:25AM 40.9770 20.5980 304° West 437 503 34,300 960 Climbing FlightAware
05:26AM 41.0210 20.5100 304° West 442 509 34,800 1,260 Climbing FlightAware
05:27AM 41.0770 20.3990 304° West 433 498 36,100 1,260 Climbing FlightAware
05:27AM 41.1220 20.3100 304° West 436 502 36,600 960 Climbing FlightAware
05:28AM 41.1730 20.2090 304° West 429 494 37,500 960 Climbing FlightAware
05:29AM 41.2160 20.1230 304° West 427 491 38,000 360 Climbing FlightAware
05:29AM 41.2600 20.0340 303° West 435 501 38,000  Level FlightAware
05:30AM 41.3100 19.9340 304° West 443 510 38,000  Level FlightAware
05:31AM 41.3520 19.8490 303° West 439 505 38,000  Level FlightAware
05:32AM 41.4050 19.7420 303° West 434 499 38,000  Level FlightAware
05:32AM 41.4480 19.6540 303° West 431 496 38,000  Level FlightAware
05:33AM 41.4930 19.5630 303° West 428 493 38,000  Level FlightAware
05:34AM 41.5400 19.4670 303° West 426 490 38,000  Level FlightAware
05:34AM 41.5900 19.3650 303° West 429 494 38,000  Level FlightAware
05:35AM 41.6320 19.2780 303° West 432 497 38,000  Level FlightAware
05:36AM 41.6760 19.1860 303° West 434 499 38,000  Level FlightAware
05:37AM 41.7240 19.0870 303° West 436 502 38,000 60 Level FlightAware
05:37AM 41.7680 18.9960 303° West 435 501 38,100 60 Climbing FlightAware
05:38AM 41.8130 18.9040 303° West 432 497 38,100 -120 Level FlightAware
05:39AM 41.8600 18.8040 302° West 430 495 38,000 -120 Descending FlightAware
05:39AM 41.9030 18.7140 303° West 429 494 38,000  Level FlightAware
05:40AM 41.9530 18.6230 306° West 422 486 38,000  Level FlightAware
05:41AM 42.0070 18.5400 311° West 417 480 38,000  Level FlightAware
05:41AM 42.0650 18.4560 313° West 415 478 38,000  Level FlightAware
05:42AM 42.1150 18.3830 313° West 414 476 38,000  Level FlightAware
05:43AM 42.1750 18.2950 313° West 415 478 38,000  Level FlightAware
05:44AM 42.2270 18.2180 312° West 414 476 38,000  Level FlightAware
05:44AM 42.2800 18.1390 312° West 414 476 38,000  Level FlightAware
05:45AM 42.3360 18.0560 312° West 416 479 38,000  Level FlightAware
05:46AM 42.3880 17.9790 312° West 416 479 38,000  Level FlightAware
05:46AM 42.4400 17.9010 312° West 416 479 38,000  Level FlightAware
05:47AM 42.4990 17.8130 312° West 414 476 38,000  Level FlightAware
05:48AM 42.5500 17.7350 312° West 414 476 38,000  Level FlightAware
05:48AM 42.5950 17.6680 312° West 415 478 38,000  Level FlightAware
05:49AM 42.6520 17.5820 312° West 415 478 38,000  Level FlightAware
05:50AM 42.7010 17.5070 312° West 416 479 38,000  Level FlightAware
05:50AM 42.7550 17.4250 312° West 417 480 38,000  Level FlightAware
05:51AM 42.8120 17.3380 312° West 417 480 38,000  Level FlightAware
05:52AM 42.8640 17.2600 312° West 417 480 38,000  Level FlightAware
05:52AM 42.9150 17.1810 311° West 415 478 38,000  Level FlightAware
05:53AM 42.9720 17.0930 312° West 415 478 38,000  Level FlightAware
05:54AM 43.0280 17.0070 312° West 415 478 38,000  Level FlightAware
05:55AM 43.0790 16.9290 312° West 416 479 38,000  Level FlightAware
05:55AM 43.1310 16.8490 312° West 418 481 38,000  Level FlightAware
05:56AM 43.1860 16.7620 311° West 419 482 38,000  Level FlightAware
05:57AM 43.2960 16.5900 311° West 419 482 38,000  Level FlightAware
05:58AM 43.3670 16.4800 312° West 420 483 38,000  Level FlightAware
05:59AM 43.4160 16.4020 311° West 421 484 38,000  Level FlightAware
06:00AM 43.4680 16.3200 311° West 420 483 38,000  Level FlightAware
06:00AM 43.5270 16.2270 311° West 418 481 38,000  Level FlightAware
06:01AM 43.5790 16.1450 311° West 419 482 38,000  Level FlightAware
06:02AM 43.6340 16.0570 311° West 419 482 38,000  Level FlightAware
06:03AM 43.6830 15.9780 311° West 419 482 38,000  Level FlightAware
06:03AM 43.7340 15.8960 311° West 417 480 38,000  Level FlightAware
06:04AM 43.7920 15.8030 311° West 418 481 38,000  Level FlightAware
06:05AM 43.8440 15.7200 311° West 420 483 38,000  Level FlightAware
06:05AM 43.8900 15.6450 310° West 421 484 38,000  Level FlightAware
06:06AM 43.9490 15.5490 311° West 421 484 38,000  Level FlightAware
06:07AM 44.0140 15.4440 311° West 420 483 38,000  Level FlightAware
06:08AM 44.0660 15.3590 310° West 420 483 38,000  Level FlightAware
06:08AM 44.1250 15.2620 310° West 421 484 38,000  Level FlightAware
06:09AM 44.1920 15.1520 310° West 422 486 38,000  Level FlightAware
06:10AM 44.2460 15.0640 311° West 423 487 38,000  Level FlightAware
06:11AM 44.3000 14.9730 310° West 425 489 38,000  Level FlightAware
06:12AM 44.3900 14.8240 310° West 428 493 38,000  Level FlightAware
06:13AM 44.4500 14.7240 310° West 428 493 38,000  Level FlightAware
06:14AM 44.5450 14.5650 310° West 427 491 38,000  Level FlightAware
06:15AM 44.6180 14.4430 310° West 428 493 38,000  Level FlightAware
06:15AM 44.6620 14.3680 310° West 429 494 38,000  Level FlightAware
06:16AM 44.7120 14.2830 310° West 429 494 38,000  Level FlightAware
06:17AM 44.7910 14.1480 310° West 431 496 38,000  Level FlightAware
06:18AM 44.8440 14.0590 310° West 432 497 38,000  Level FlightAware
06:19AM 44.9020 13.9600 310° West 433 498 38,000  Level FlightAware
06:19AM 44.9540 13.8700 309° West 435 501 38,000  Level FlightAware
06:20AM 45.0110 13.7720 309° West 433 498 38,000 60 Level FlightAware
06:21AM 45.0670 13.6750 309° West 431 496 38,100  Climbing FlightAware
06:21AM 45.1120 13.5960 309° West 423 487 38,000 -120 Descending FlightAware
06:22AM 45.1530 13.5260 310° West 426 490 38,000  Level FlightAware
06:23AM 45.2310 13.4090 313° West 425 489 38,000  Level FlightAware
06:24AM 45.2950 13.3330 320° Northwest 425 489 38,000  Level FlightAware
06:24AM 45.3700 13.2440 320° Northwest 424 488 38,000  Level FlightAware
06:25AM 45.4380 13.1630 320° Northwest 424 488 38,000  Level FlightAware
06:26AM 45.5000 13.0900 320° Northwest 420 483 38,000  Level FlightAware
06:27AM 45.5610 13.0160 320° Northwest 421 484 38,000  Level FlightAware
06:27AM 45.6280 12.9350 320° Northwest 423 487 38,000  Level FlightAware
06:28AM 45.6870 12.8640 320° Northwest 423 487 38,000  Level FlightAware
06:29AM 45.7550 12.7820 320° Northwest 423 487 38,000  Level FlightAware
06:29AM 45.8180 12.7050 320° Northwest 423 487 38,000  Level FlightAware
06:30AM 45.8780 12.6320 320° Northwest 423 487 38,000  Level FlightAware
06:31AM 45.9460 12.5490 320° Northwest 423 487 38,000  Level FlightAware
06:31AM 46.0050 12.4770 320° Northwest 429 494 38,000  Level FlightAware
06:32AM 46.0650 12.4020 319° Northwest 425 489 38,000  Level FlightAware
06:33AM 46.1330 12.3190 320° Northwest 424 488 38,000  Level FlightAware
06:34AM 46.1940 12.2430 319° Northwest 429 494 38,000  Level FlightAware
06:34AM 46.2610 12.1600 319° Northwest 428 493 38,000  Level FlightAware
06:35AM 46.3190 12.0880 319° Northwest 426 490 38,000  Level FlightAware
06:36AM 46.3880 12.0020 319° Northwest 426 490 38,000  Level FlightAware
06:36AM 46.4490 11.9260 319° Northwest 426 490 38,000  Level FlightAware
06:37AM 46.5080 11.8520 319° Northwest 426 490 38,000  Level FlightAware
06:38AM 46.5700 11.7730 319° Northwest 426 490 38,000  Level FlightAware
06:38AM 46.6340 11.6920 319° Northwest 426 490 38,000  Level FlightAware
06:39AM 46.6970 11.6120 319° Northwest 426 490 38,000  Level FlightAware
06:40AM 46.7600 11.5320 319° Northwest 426 490 38,000  Level FlightAware
06:41AM 46.8160 11.4610 319° Northwest 425 489 38,000  Level FlightAware
06:41AM 46.8870 11.3700 319° Northwest 424 488 38,000  Level FlightAware
06:42AM 46.9400 11.3060 321° Northwest 425 489 38,000  Level FlightAware
06:43AM 46.9970 11.2400 322° Northwest 425 489 38,000  Level FlightAware
06:43AM 47.0670 11.1590 322° Northwest 419 482 38,000  Level FlightAware
06:44AM 47.1370 11.0770 321° Northwest 419 482 38,000  Level FlightAware
06:45AM 47.2030 11.0000 322° Northwest 421 484 38,000  Level FlightAware
06:45AM 47.2710 10.9190 321° Northwest 421 484 38,000  Level FlightAware
06:46AM 47.3310 10.8480 321° Northwest 421 484 38,000  Level FlightAware
06:47AM 47.3990 10.7660 321° Northwest 430 495 38,000  Level FlightAware
06:48AM 47.4610 10.6920 321° Northwest 432 497 38,000  Level FlightAware
06:49AM 47.5630 10.5700 321° Northwest 434 499 38,000  Level FlightAware
06:49AM 47.6400 10.4780 321° Northwest 436 502 38,000  Level FlightAware
06:52AM 47.7733 10.2409 310° West  Level Estimated
06:52AM 47.8570 10.2150 310° West 434 499 38,000  Level FlightAware
06:52AM 47.9190 10.1380 320° Northwest 434 499 38,000  Level FlightAware
06:53AM 47.9830 10.0600 321° Northwest 434 499 38,000  Level FlightAware
06:54AM 48.0530 9.9730 320° Northwest 435 501 38,000  Level FlightAware
06:55AM 48.1160 9.8960 321° Northwest 436 502 38,000  Level FlightAware
06:55AM 48.1670 9.8320 320° Northwest 427 491 38,000  Level FlightAware
06:56AM 48.2150 9.7720 320° Northwest 427 491 38,000  Level FlightAware
06:57AM 48.2740 9.6990 321° Northwest 432 497 38,000  Level FlightAware
06:57AM 48.3730 9.5750 320° Northwest 426 490 38,000  Level FlightAware
06:58AM 48.4360 9.4940 320° Northwest 427 491 38,000  Level FlightAware
06:59AM 48.4960 9.4170 320° Northwest 428 493 38,000  Level FlightAware
06:59AM 48.5650 9.3270 319° Northwest 432 497 38,000  Level FlightAware
07:00AM 48.6250 9.2450 318° Northwest 429 494 38,000  Level FlightAware
07:01AM 48.6820 9.1450 311° West 427 491 38,000  Level FlightAware
07:02AM 48.7330 9.0540 310° West 427 491 38,000  Level FlightAware
07:02AM 48.7930 8.9460 310° West 428 493 38,000  Level FlightAware
07:03AM 48.8440 8.8550 310° West 429 494 38,000  Level FlightAware
07:04AM 48.9020 8.7500 310° West 433 498 38,000  Level FlightAware
07:04AM 48.9530 8.6560 310° West 432 497 38,000  Level FlightAware
07:05AM 49.0110 8.5510 310° West 426 490 38,000  Level FlightAware
07:06AM 49.0620 8.4620 311° West 427 491 38,000 60 Level FlightAware
07:06AM 49.1150 8.3680 311° West 421 484 38,100  Climbing FlightAware
07:07AM 49.1720 8.2670 311° West 421 484 38,000 -120 Descending FlightAware
07:08AM 49.2220 8.1790 311° West 422 486 38,000  Level FlightAware
07:09AM 49.2810 8.0720 310° West 426 490 38,000  Level FlightAware
07:09AM 49.3310 7.9820 310° West 424 488 38,000  Level FlightAware
07:10AM 49.3810 7.8920 310° West 427 491 38,000  Level FlightAware
07:11AM 49.4440 7.7780 310° West 430 495 38,000  Level FlightAware
07:11AM 49.4910 7.6930 310° West 432 497 38,000  Level FlightAware
07:12AM 49.5410 7.6010 310° West 433 498 38,000 60 Level FlightAware
07:13AM 49.6020 7.4900 310° West 432 497 38,100  Climbing FlightAware
07:13AM 49.6540 7.3940 310° West 433 498 38,000 -120 Descending FlightAware
07:14AM 49.7120 7.2880 310° West 434 499 38,000  Level FlightAware
07:15AM 49.7640 7.1900 309° West 434 499 38,000  Level FlightAware
07:16AM 49.8160 7.0940 310° West 435 501 38,000  Level FlightAware
07:16AM 49.8620 6.9920 305° West 434 499 38,000  Level FlightAware
07:17AM 49.9130 6.8760 304° West 432 497 38,000  Level FlightAware
07:18AM 49.9520 6.7870 304° West 430 495 38,000  Level FlightAware
07:18AM 50.0090 6.6550 304° West 428 493 38,000  Level FlightAware
07:19AM 50.0520 6.5560 304° West 422 486 38,000  Level FlightAware
07:20AM 50.1010 6.4420 304° West 422 486 38,000  Level FlightAware
07:20AM 50.1450 6.3390 304° West 422 486 38,000  Level FlightAware
07:21AM 50.1940 6.2260 304° West 422 486 38,000  Level FlightAware
07:22AM 50.2380 6.1220 304° West 422 486 38,000  Level FlightAware
07:23AM 50.2820 6.0180 304° West 425 489 38,000  Level FlightAware
07:23AM 50.3300 5.9040 303° West 425 489 38,000  Level FlightAware
07:24AM 50.3740 5.7990 303° West 427 491 38,000  Level FlightAware
07:25AM 50.4180 5.6940 303° West 428 493 38,000  Level FlightAware
07:25AM 50.4660 5.5770 303° West 429 494 38,000  Level FlightAware
07:26AM 50.5110 5.4700 304° West 429 494 38,000  Level FlightAware
07:27AM 50.5590 5.3530 303° West 428 493 38,000  Level FlightAware
07:27AM 50.6030 5.2460 303° West 428 493 38,000  Level FlightAware
07:28AM 50.6510 5.1300 303° West 427 491 38,000  Level FlightAware
07:29AM 50.6960 5.0200 303° West 425 489 38,000  Level FlightAware
07:30AM 50.7390 4.9150 303° West 424 488 38,000  Level FlightAware
07:30AM 50.7860 4.7960 302° West 425 489 38,000 -1,200 Level FlightAware
07:31AM 50.8239 4.6868 302° West 448 516 36,400  Descending FlightAware UK
07:31AM 50.8270 4.6950 302° West 425 489 38,000  Climbing FlightAware
07:31AM 50.8570 4.6106 302° West 448 516 36,400  Descending FlightAware UK
07:32AM 50.8690 4.5900 302° West 424 488 38,000  Climbing FlightAware
07:32AM 50.8948 4.5162 302° West 446 513 36,400  Descending FlightAware UK
07:32AM 50.9160 4.4730 302° West 426 490 38,000  Climbing FlightAware
07:33AM 50.9421 4.4098 302° West 446 513 36,400 -2,640 Descending FlightAware UK
07:33AM 50.9619 4.3628 304° West 448 516 36,400 4,560 Level FlightAware UK
07:33AM 50.9580 4.3660 304° West 429 494 38,000  Climbing FlightAware
07:33AM 50.9802 4.3145 304° West 446 513 36,400  Descending FlightAware UK
07:34AM 51.0060 4.2470 304° West 434 499 38,000  Climbing FlightAware
07:34AM 51.0303 4.1859 304° West 452 520 36,400  Descending FlightAware UK
07:34AM 51.0440 4.1500 304° West 435 501 38,000 120 Climbing FlightAware
07:35AM 51.0743 4.0709 304° West 452 520 36,500 120 Descending FlightAware UK
07:35AM 51.0910 4.0290 304° West 436 502 38,100 1,380 Climbing FlightAware
07:36AM 51.1420 3.9010 302° West 433 498 38,000 -1,380 Descending FlightAware
07:36AM 51.1708 3.8274 302° West 452 520 36,500  Descending FlightAware UK
07:37AM 51.1840 3.7920 302° West 434 499 38,000  Climbing FlightAware
07:37AM 51.2200 3.6961 302° West 452 520 36,500  Descending FlightAware UK
07:37AM 51.2250 3.6680 302° West 429 494 38,000 1,680 Climbing FlightAware
07:38AM 51.2470 3.5580 288° West 424 488 38,000  Level FlightAware
07:39AM 51.2630 3.4360 282° West 423 487 38,000 -1,740 Level FlightAware
07:39AM 51.2721 3.3686 282° West 450 518 36,400 -2,880 Descending FlightAware UK
07:39AM 51.2794 3.3135 282° West 452 520 36,400 3,300 Level FlightAware UK
07:39AM 51.2810 3.3010 282° West 424 488 38,000  Climbing FlightAware
07:40AM 51.2918 3.2216 282° West 452 520 36,400  Descending FlightAware UK
07:40AM 51.2970 3.1760 282° West 426 490 38,000 120 Climbing FlightAware
07:40AM 51.3085 3.0931 282° West 452 520 36,500  Descending FlightAware UK
07:41AM 51.3150 3.0380 282° West 427 491 38,000 1,380 Climbing FlightAware
07:41AM 51.3310 2.9100 281° West 428 493 38,000  Level FlightAware
07:42AM 51.3470 2.7870 282° West 426 490 38,000 -240 Level FlightAware
07:42AM 51.3555 2.7176 281° West 425 489 37,800 -2,880 Descending FlightAware ADS-B
07:43AM 51.3663 2.6302 281° West 450 518 35,800 -960 Descending FlightAware UK
07:43AM 51.3756 2.5542 281° West 428 493 37,000 -480 Climbing FlightAware ADS-B
07:44AM 51.3820 2.5004 281° West 450 518 35,500  Descending FlightAware UK
07:44AM 51.3880 2.4535 281° West 428 493 37,000  Climbing FlightAware ADS-B
07:44AM 51.4010 2.3493 281° West 448 516 35,500  Descending FlightAware UK
07:45AM 51.4034 2.3277 281° West 437 503 37,000  Climbing FlightAware ADS-B
07:45AM 51.4147 2.2353 281° West 452 520 35,500  Descending FlightAware UK
07:45AM 51.4168 2.2161 281° West 435 501 37,000  Climbing FlightAware ADS-B
07:45AM 51.4258 2.1407 281° West 448 516 35,500  Descending FlightAware UK
07:46AM 51.4286 2.1191 281° West 432 497 37,000 2,400 Climbing FlightAware ADS-B
07:46AM 51.4399 2.0250 281° West 430 495 37,000  Level FlightAware ADS-B
07:46AM 51.4460 1.9689 280° West 430 495 37,000  Level FlightAware ADS-B
07:47AM 51.4521 1.8686 276° West 429 494 37,000  Level FlightAware ADS-B
07:48AM 51.4590 1.7410 275° West 426 490 37,000 -1,440 Level FlightAware
07:48AM 51.4637 1.6518 275° West 448 516 35,400 -2,400 Descending FlightAware UK
07:48AM 51.4667 1.5952 275° West 448 516 35,400 5,280 Level FlightAware UK
07:48AM 51.4660 1.6080 275° West 427 491 37,000  Climbing FlightAware
07:49AM 51.4698 1.5385 275° West 448 516 35,400  Descending FlightAware UK
07:49AM 51.4740 1.4670 275° West 429 494 37,000 1,380 Climbing FlightAware
07:50AM 51.4800 1.3460 275° West 429 494 37,000 -1,620 Level FlightAware
07:50AM 51.4845 1.2737 275° West 448 516 35,500  Descending FlightAware UK
07:50AM 51.4883 1.2089 275° West 430 495 37,000  Climbing FlightAware ADS-B
07:51AM 51.4913 1.1597 275° West 448 516 35,500  Descending FlightAware UK
07:51AM 51.4936 1.1128 275° West 431 496 37,000  Climbing FlightAware ADS-B
07:51AM 51.4963 1.0653 275° West 448 516 35,500  Descending FlightAware UK
07:51AM 51.4986 1.0153 275° West 430 495 37,000 2,340 Climbing FlightAware ADS-B
07:52AM 51.5017 0.9469 274° West 431 496 37,000 -2,400 Level FlightAware ADS-B
07:52AM 51.5021 0.8937 274° West 450 518 35,500  Descending FlightAware UK
07:52AM 51.5016 0.8748 274° West 431 496 37,000  Climbing FlightAware ADS-B
07:52AM 51.5003 0.8172 274° West 450 518 35,500  Descending FlightAware UK
07:53AM 51.4993 0.7790 274° West 431 496 37,000  Climbing FlightAware ADS-B
07:53AM 51.4979 0.7223 274° West 450 518 35,500  Descending FlightAware UK
07:53AM 51.4969 0.6806 274° West 430 495 37,000  Climbing FlightAware ADS-B
07:53AM 51.4957 0.6268 274° West 450 518 35,500  Descending FlightAware UK
07:54AM 51.4945 0.5849 274° West 430 495 37,000  Climbing FlightAware ADS-B
07:54AM 51.4931 0.5316 274° West 450 518 35,500  Descending FlightAware UK
07:54AM 51.4919 0.4854 274° West 429 494 37,000 1,980 Climbing FlightAware ADS-B
07:55AM 51.4895 0.3891 268° West 430 495 37,000  Level FlightAware ADS-B
07:55AM 51.4868 0.2928 267° West 431 496 37,000  Level FlightAware ADS-B
07:55AM 51.4856 0.2520 267° West 431 496 37,000  Level FlightAware ADS-B
07:56AM 51.4869 0.2093 273° West 430 495 37,000  Level FlightAware ADS-B
07:56AM 51.4884 0.1938 279° West 431 496 37,000  Level FlightAware ADS-B
07:56AM 51.4922 0.1674 283° West 431 496 37,000  Level FlightAware ADS-B
07:56AM 51.4986 0.1392 290° West 431 496 37,000  Level FlightAware ADS-B
07:56AM 51.5047 0.1191 296° West 431 496 37,000  Level FlightAware ADS-B
07:56AM 51.5127 0.0981 302° West 432 497 37,000  Level FlightAware ADS-B
07:56AM 51.5250 0.0730 308° West 433 498 37,000  Level FlightAware ADS-B
07:57AM 51.5358 0.0556 315° West 433 498 37,000 300 Level FlightAware ADS-B
07:57AM 51.5498 0.0374 321° Northwest 433 498 37,100 120 Climbing FlightAware ADS-B
07:57AM 51.5985 -0.0232 322° Northwest 430 495 37,100 -120 Level FlightAware ADS-B
07:58AM 51.6470 -0.0843 322° Northwest 428 493 37,000 -120 Descending FlightAware ADS-B
07:58AM 51.6773 -0.1210 323° Northwest 427 491 37,000  Level FlightAware ADS-B
07:58AM 51.6884 -0.1332 326° Northwest 427 491 37,000 -4,140 Level FlightAware ADS-B
07:58AM 51.7144 -0.1599 326° Northwest 448 516 35,500  Descending FlightAware UK
07:59AM 51.7387 -0.1845 326° Northwest 426 490 37,000 -180 Climbing FlightAware ADS-B
07:59AM 51.7743 -0.2209 326° Northwest 446 513 35,400  Descending FlightAware UK
07:59AM 51.7886 -0.2355 326° Northwest 425 489 37,000 2,460 Climbing FlightAware ADS-B
08:00AM 51.8383 -0.2869 327° Northwest 426 490 37,000  Level FlightAware ADS-B
08:00AM 51.8793 -0.3312 326° Northwest 425 489 37,000  Level FlightAware ADS-B
08:01AM 51.9268 -0.3879 324° Northwest 425 489 37,000  Level FlightAware ADS-B
08:01AM 51.9747 -0.4449 324° Northwest 426 490 37,000  Level FlightAware ADS-B
08:02AM 52.0223 -0.5018 324° Northwest 426 490 37,000 -120 Level FlightAware ADS-B
08:02AM 52.0702 -0.5590 324° Northwest 425 489 36,900 -2,880 Descending FlightAware ADS-B
08:03AM 52.1096 -0.6063 324° Northwest 448 516 34,400 -2,640 Descending FlightAware UK
08:03AM 52.1205 -0.6200 324° Northwest 426 490 35,500 -780 Climbing FlightAware ADS-B
08:03AM 52.1588 -0.6679 323° Northwest 432 497 34,000 -5,280 Descending FlightAware ADS-B
08:03AM 52.1953 -0.7110 323° Northwest 450 518 31,400 -2,820 Descending FlightAware UK
08:04AM 52.2089 -0.7245 323° Northwest 428 493 32,600 -660 Climbing FlightAware ADS-B
08:04AM 52.2582 -0.7774 327° Northwest 421 484 31,000 -3,240 Descending FlightAware ADS-B
08:04AM 52.2853 -0.8067 327° Northwest 421 484 30,100 -2,520 Descending FlightAware ADS-B
08:05AM 52.3060 -0.8267 329° Northwest 411 473 29,800 -1,860 Descending FlightAware ADS-B
08:05AM 52.3553 -0.8700 332° Northwest 394 453 28,800 -1,920 Descending FlightAware ADS-B
08:06AM 52.3996 -0.9123 330° Northwest 378 435 27,900 -3,600 Descending FlightAware ADS-B
08:06AM 52.4334 -0.9460 330° Northwest 400 460 25,700 -2,220 Descending FlightAware UK
08:06AM 52.4455 -0.9573 330° Northwest 364 419 26,800 -3,240 Climbing FlightAware ADS-B
08:06AM 52.4772 -0.9875 330° Northwest 396 456 24,100 -2,520 Descending FlightAware UK
08:07AM 52.4933 -1.0021 330° Northwest 361 415 25,400 -1,800 Climbing FlightAware ADS-B
08:07AM 52.5203 -1.0274 330° Northwest 380 437 23,200 -2,400 Descending FlightAware UK
08:07AM 52.5372 -1.0431 330° Northwest 353 406 24,200 1,200 Climbing FlightAware ADS-B
08:07AM 52.5538 -1.0608 327° Northwest 354 407 23,700 -2,100 Descending FlightAware ADS-B
08:08AM 52.5939 -1.1090 324° Northwest 349 402 22,700 -1,980 Descending FlightAware ADS-B
08:08AM 52.6345 -1.1578 324° Northwest 348 400 21,700 -3,960 Descending FlightAware ADS-B
08:09AM 52.6554 -1.1832 324° Northwest 360 414 19,600 -2,040 Descending FlightAware UK
08:09AM 52.6733 -1.2048 324° Northwest 339 390 20,700 660 Climbing FlightAware ADS-B
08:09AM 52.7109 -1.2504 324° Northwest 323 372 20,100 -3,060 Descending FlightAware ADS-B
08:10AM 52.7358 -1.2807 324° Northwest 334 384 18,100 -1,200 Descending FlightAware UK
08:10AM 52.7461 -1.2933 324° Northwest 311 358 19,500 -1,200 Climbing FlightAware ADS-B
08:10AM 52.7701 -1.3228 324° Northwest 324 373 17,500 -1,380 Descending FlightAware UK
08:10AM 52.7813 -1.3362 324° Northwest 305 351 18,800 420 Climbing FlightAware ADS-B
08:11AM 52.8156 -1.3781 324° Northwest 301 346 17,800 -3,840 Descending FlightAware ADS-B
08:11AM 52.8372 -1.4047 324° Northwest 318 366 15,700 -1,800 Descending FlightAware UK
08:11AM 52.8500 -1.4201 324° Northwest 300 345 16,900 540 Climbing FlightAware ADS-B
08:12AM 52.8832 -1.4606 324° Northwest 294 338 16,100 -3,540 Descending FlightAware ADS-B
08:12AM 52.9032 -1.4855 324° Northwest 312 359 14,100 -1,620 Descending FlightAware UK
08:13AM 52.9242 -1.5108 324° Northwest 289 333 15,100 -240 Climbing FlightAware ADS-B
08:13AM 52.9650 -1.5670 320° Northwest 292 336 13,900 -3,180 Descending FlightAware
08:14AM 52.9932 -1.6166 320° Northwest 298 343 11,400 -1,800 Descending FlightAware UK
08:14AM 53.0030 -1.6330 320° Northwest 282 325 12,700 60 Climbing FlightAware
08:15AM 53.0450 -1.7040 315° West 277 319 11,500 -3,180 Descending FlightAware
08:15AM 53.0657 -1.7384 315° West 288 331 9,300 -4,440 Descending FlightAware UK
08:15AM 53.0822 -1.7661 315° West 286 329 8,700 1,320 Descending FlightAware UK
08:16AM 53.0920 -1.7820 315° West 280 322 10,100 600 Climbing FlightAware
08:16AM 53.1230 -1.8340 315° West 277 319 9,200 -1,680 Descending FlightAware
08:17AM 53.1440 -1.8700 314° West 276 318 8,600 -1,200 Descending FlightAware
08:17AM 53.1700 -1.9130 315° West 283 326 8,100 -1,200 Descending FlightAware
08:17AM 53.1870 -1.9310 328° Northwest 275 316 7,700 -4,620 Descending FlightAware
08:18AM 53.2114 -1.9358 328° Northwest 274 315 5,800 -960 Descending FlightAware UK
08:18AM 53.2200 -1.9380 328° Northwest 268 308 7,300 -1,800 Climbing FlightAware
08:18AM 53.2484 -1.9403 328° Northwest 274 315 4,900 -2,220 Descending FlightAware UK
08:18AM 53.2570 -1.9410 328° Northwest 271 312 6,200 1,020 Climbing FlightAware
08:19AM 53.2880 -1.9440 328° Northwest 271 312 5,500 -5,340 Descending FlightAware
08:19AM 53.2935 -1.9441 328° Northwest 276 318 3,900 -6,000 Descending FlightAware UK
08:19AM 53.3158 -1.9454 328° Northwest 264 304 3,600 2,220 Descending FlightAware UK
08:19AM 53.3240 -1.9460 328° Northwest 259 298 5,000 -1,020 Climbing FlightAware
08:19AM 53.3504 -1.9389 328° Northwest 248 285 3,100 -720 Descending FlightAware UK
08:20AM 53.3520 -1.9400 328° Northwest 246 283 4,700 -540 Climbing FlightAware
08:20AM 53.3888 -1.9244 328° Northwest 234 269 2,800 -600 Descending FlightAware UK
08:20AM 53.3830 -1.9270 328° Northwest 232 267 4,400 -1,020 Climbing FlightAware
08:20AM 53.4134 -1.9142 328° Northwest 226 260 2,400 -840 Descending FlightAware UK
08:21AM 53.4160 -1.9130 328° Northwest 223 257 4,000 2,700 Climbing FlightAware
08:21AM 53.4420 -1.9030 13° North 215 247 3,800 -2,760 Descending FlightAware
08:21AM 53.4597 -1.9093 13° North 218 251 2,100 -420 Descending FlightAware UK
08:21AM 53.4670 -1.9190 13° North 206 237 3,600 3,000 Climbing FlightAware
08:22AM 53.4780 -1.9330 323° Northwest 200 230 3,500 -240 Descending FlightAware
08:22AM 53.4850 -1.9450 314° West 197 227 3,500 -240 Level FlightAware
08:22AM 53.4900 -1.9680 290° West 196 226 3,400 -2,700 Descending FlightAware
08:23AM 53.4816 -2.0050 290° West 196 226 1,700 -240 Descending FlightAware UK
08:23AM 53.4820 -2.0040 290° West 193 222 3,300 4,500 Climbing FlightAware
08:23AM 53.4750 -2.0210 235° Southwest 193 222 3,200 -300 Descending FlightAware
08:23AM 53.4620 -2.0500 233° Southwest 182 209 3,100 -2,580 Descending FlightAware
08:24AM 53.4442 -2.0870 233° Southwest 176 203 1,000 -1,080 Descending FlightAware UK
08:24AM 53.4360 -2.1030 233° Southwest 169 194 2,300 1,200 Climbing FlightAware
08:24AM 53.4260 -2.1250 233° Southwest 162 186 1,900 -900 Descending FlightAware
08:25AM 53.4110 -2.1560 231° Southwest 158 182 1,500 -780 Descending FlightAware
08:25AM 53.4010 -2.1770 231° Southwest 142 163 1,200 -900 Descending FlightAware
08:26AM 53.3940 -2.1910 230° Southwest 131 151 900 -840 Descending FlightAware
08:26AM 53.3830 -2.2150 232° Southwest 133 153 600 -720 Descending FlightAware
08:26AM 53.3780 -2.2260 233° Southwest 133 153 400 -780 Descending FlightAware
08:27AM 53.3680 -2.2460 230° Southwest 131 151 100 -720 Descending FlightAware